Aviation Digital Data Service (ADDS)

Output produced by METARs form (1326 UTC 30 September 2016)
found at http://aviationweather.gov/adds/metars/
 
KBTV 301126Z 3012/0112 14008KT P6SM BKN150 BKN200 
     FM301800 15009KT P6SM OVC150 
     FM010000 12005KT P6SM OVC130 
     FM010300 12005KT P6SM OVC070